createdAt,value
2022-12-11T00:01:31.850Z,3.03
2022-12-11T00:04:11.453Z,3.45
2022-12-11T00:06:38.458Z,2.85
2022-12-11T00:09:05.477Z,3.17
2022-12-11T00:11:41.555Z,3.10
2022-12-11T00:14:15.956Z,2.10
2022-12-11T00:16:43.559Z,4.07
2022-12-11T00:19:10.595Z,3.40
2022-12-11T00:21:37.757Z,4.63
2022-12-11T00:24:20.200Z,3.75
2022-12-11T00:26:47.177Z,4.10
2022-12-11T00:29:14.125Z,3.40
2022-12-11T00:31:42.543Z,4.35
2022-12-11T00:34:09.777Z,4.27
2022-12-11T00:36:36.798Z,4.13
2022-12-11T00:39:10.764Z,3.75
2022-12-11T00:41:37.634Z,3.17
2022-12-11T00:44:04.797Z,4.80
2022-12-11T00:46:32.215Z,2.70
2022-12-11T00:48:59.298Z,3.45
2022-12-11T00:51:26.833Z,2.60
2022-12-11T00:53:54.173Z,2.47
2022-12-11T00:56:22.513Z,2.60
2022-12-11T00:58:49.869Z,2.90
2022-12-11T01:01:20.703Z,2.55
2022-12-11T01:03:48.650Z,2.08
2022-12-11T01:06:20.859Z,2.97
2022-12-11T01:08:48.496Z,2.92
2022-12-11T01:11:17.636Z,2.70
2022-12-11T01:13:44.554Z,2.35
2022-12-11T01:16:14.733Z,2.50
2022-12-11T01:18:42.393Z,2.30
2022-12-11T01:21:13.969Z,2.50
2022-12-11T01:23:41.345Z,2.53
2022-12-11T01:26:11.189Z,2.38
2022-12-11T01:28:38.421Z,2.30
2022-12-11T01:31:16.504Z,3.17
2022-12-11T01:33:54.218Z,2.17
2022-12-11T01:36:22.762Z,2.20
2022-12-11T01:38:50.134Z,1.88
2022-12-11T01:41:25.888Z,1.60
2022-12-11T01:44:12.197Z,0.60
2022-12-11T01:46:39.093Z,1.55
2022-12-11T01:49:15.469Z,1.67
2022-12-11T01:51:53.333Z,2.17
2022-12-11T01:54:23.236Z,1.70
2022-12-11T01:56:53.617Z,0.70
2022-12-11T01:59:25.728Z,1.10
2022-12-11T02:02:28.222Z,1.60
2022-12-11T02:04:55.329Z,0.52
2022-12-11T02:07:22.988Z,1.02
2022-12-11T02:09:50.524Z,1.00
2022-12-11T02:12:44.209Z,1.00
2022-12-11T02:15:32.420Z,1.10
2022-12-11T02:18:05.117Z,0.93
2022-12-11T02:20:44.364Z,2.60
2022-12-11T02:23:41.379Z,0.60
2022-12-11T02:26:29.568Z,0.40
2022-12-11T02:29:00.072Z,0.30
2022-12-11T02:31:42.624Z,0.40
2022-12-11T02:34:38.889Z,0.30
2022-12-11T02:37:10.785Z,0.20
2022-12-11T02:39:41.104Z,0.25
2022-12-11T02:42:09.942Z,0.30
2022-12-11T02:44:38.406Z,0.30
2022-12-11T02:47:10.613Z,0.38
2022-12-11T02:49:40.217Z,0.30
2022-12-11T02:52:08.814Z,0.30
2022-12-11T02:54:39.824Z,0.30
2022-12-11T02:57:13.222Z,0.40
2022-12-11T02:59:43.061Z,0.30
2022-12-11T03:02:12.075Z,0.43
2022-12-11T03:04:39.806Z,0.50
2022-12-11T03:07:32.152Z,0.73
2022-12-11T03:10:06.973Z,0.30
2022-12-11T03:12:37.725Z,0.50
2022-12-11T03:15:09.203Z,0.55
2022-12-11T03:17:49.381Z,0.75
2022-12-11T03:21:10.503Z,0.40
2022-12-11T03:23:51.774Z,0.30
2022-12-11T03:26:20.867Z,0.80
2022-12-11T03:28:55.743Z,0.40
2022-12-11T03:31:47.725Z,0.30
2022-12-11T03:34:21.936Z,0.67
2022-12-11T03:36:52.163Z,0.50
2022-12-11T03:39:40.615Z,0.40
2022-12-11T03:42:24.692Z,0.60
2022-12-11T03:44:55.088Z,0.68
2022-12-11T03:47:26.193Z,0.90
2022-12-11T03:49:54.605Z,0.73
2022-12-11T03:52:23.015Z,0.80
2022-12-11T03:54:51.405Z,0.63
2022-12-11T03:57:23.543Z,0.75
2022-12-11T03:59:50.692Z,0.80
2022-12-11T04:02:17.595Z,0.80
2022-12-11T04:04:54.814Z,0.80
2022-12-11T04:07:26.643Z,1.35
2022-12-11T04:09:53.952Z,1.60
2022-12-11T04:12:21.745Z,0.87
2022-12-11T04:14:49.402Z,1.60
2022-12-11T04:17:16.349Z,1.63
2022-12-11T04:19:55.489Z,1.58
2022-12-11T04:22:22.757Z,1.90
2022-12-11T04:24:49.818Z,1.87
2022-12-11T04:27:18.558Z,1.50
2022-12-11T04:32:26.077Z,1.58
2022-12-11T04:34:53.059Z,2.22
2022-12-11T04:37:20.071Z,5.03
2022-12-11T04:39:47.256Z,6.00
2022-12-11T04:42:27.238Z,1.77
2022-12-11T04:44:54.244Z,1.45
2022-12-11T04:47:21.263Z,1.58
2022-12-11T04:49:48.069Z,2.13
2022-12-11T04:52:14.978Z,1.70
2022-12-11T04:54:42.179Z,1.85
2022-12-11T04:57:09.145Z,1.92
2022-12-11T04:59:39.577Z,1.70
2022-12-11T05:02:22.952Z,1.50
2022-12-11T05:04:49.816Z,2.00
2022-12-11T05:07:26.455Z,2.25
2022-12-11T05:09:53.303Z,1.63
2022-12-11T05:12:20.152Z,1.73
2022-12-11T05:14:47.435Z,1.47
2022-12-11T05:17:14.593Z,2.13
2022-12-11T05:19:41.588Z,2.00
2022-12-11T05:22:08.784Z,1.70
2022-12-11T05:24:35.952Z,2.45
2022-12-11T05:27:05.474Z,2.03
2022-12-11T05:29:32.463Z,2.17
2022-12-11T05:31:59.686Z,1.70
2022-12-11T05:34:26.658Z,2.17
2022-12-11T05:36:53.915Z,2.20
2022-12-11T05:39:26.725Z,1.50
2022-12-11T05:41:53.653Z,1.92
2022-12-11T05:44:20.537Z,1.52
2022-12-11T05:46:56.197Z,1.35
2022-12-11T05:49:29.021Z,1.60
2022-12-11T05:51:57.754Z,1.80
2022-12-11T05:54:26.576Z,1.77
2022-12-11T05:56:53.583Z,2.00
2022-12-11T05:59:20.517Z,2.13
2022-12-11T06:01:47.607Z,2.10
2022-12-11T06:04:14.620Z,1.97
2022-12-11T06:06:42.286Z,1.80
2022-12-11T06:09:13.482Z,1.40
2022-12-11T06:11:40.615Z,2.03
2022-12-11T06:14:07.968Z,1.33
2022-12-11T06:16:37.165Z,1.47
2022-12-11T06:19:11.095Z,1.40
2022-12-11T06:21:37.908Z,1.30
2022-12-11T06:24:11.228Z,1.27
2022-12-11T06:26:38.432Z,2.05
2022-12-11T06:29:09.180Z,2.60
2022-12-11T06:31:39.854Z,1.88
2022-12-11T06:34:06.886Z,1.50
2022-12-11T06:36:33.886Z,1.40
2022-12-11T06:39:00.774Z,1.73
2022-12-11T06:41:37.691Z,1.60
2022-12-11T06:44:04.996Z,2.38
2022-12-11T06:46:32.123Z,1.45
2022-12-11T06:48:58.851Z,1.63
2022-12-11T06:51:25.807Z,2.50
2022-12-11T06:56:36.344Z,1.33
2022-12-11T06:59:23.167Z,1.63
2022-12-11T07:01:50.130Z,2.45
2022-12-11T07:04:17.239Z,1.45
2022-12-11T07:06:44.016Z,1.43
2022-12-11T07:09:11.264Z,1.20
2022-12-11T07:11:40.926Z,1.45
2022-12-11T07:14:26.558Z,1.27
2022-12-11T07:16:54.014Z,1.25
2022-12-11T07:19:20.951Z,2.27
2022-12-11T07:21:47.944Z,2.13
2022-12-11T07:24:15.015Z,0.80
2022-12-11T07:26:41.976Z,1.35
2022-12-11T07:29:13.891Z,1.10
2022-12-11T07:31:41.022Z,2.53
2022-12-11T07:34:08.535Z,1.40
2022-12-11T07:36:35.754Z,1.10
2022-12-11T07:39:02.697Z,1.60
2022-12-11T07:41:30.094Z,1.55
2022-12-11T07:44:03.656Z,1.17
2022-12-11T07:46:32.504Z,1.27
2022-12-11T07:48:59.974Z,1.23
2022-12-11T07:51:30.046Z,0.73
2022-12-11T07:54:10.216Z,0.82
2022-12-11T08:05:26.896Z,0.63
2022-12-11T08:08:02.800Z,0.68
2022-12-11T08:13:12.032Z,1.50
2022-12-11T08:15:38.829Z,2.88
2022-12-11T08:18:06.190Z,1.98
2022-12-11T08:20:38.535Z,1.48
2022-12-11T08:23:06.086Z,1.17
2022-12-11T08:25:33.307Z,1.88
2022-12-11T08:28:00.662Z,0.90
2022-12-11T08:30:27.909Z,1.25
2022-12-11T08:32:55.183Z,1.92
2022-12-11T08:35:22.084Z,1.00
2022-12-11T08:37:49.033Z,0.88
2022-12-11T08:40:16.221Z,0.70
2022-12-11T08:42:43.684Z,1.05
2022-12-11T08:45:11.250Z,0.77
2022-12-11T08:47:38.864Z,2.37
2022-12-11T08:50:10.278Z,1.52
2022-12-11T08:52:37.264Z,1.10
2022-12-11T08:55:07.224Z,0.80
2022-12-11T08:57:34.154Z,1.10
2022-12-11T09:00:01.448Z,1.33
2022-12-11T09:05:25.417Z,1.48
2022-12-11T09:07:56.238Z,1.15
2022-12-11T09:10:24.429Z,0.82
2022-12-11T09:12:51.218Z,1.07
2022-12-11T09:15:18.400Z,0.90
2022-12-11T09:18:01.233Z,1.13
2022-12-11T09:20:41.409Z,1.48
2022-12-11T09:23:08.494Z,1.17
2022-12-11T09:25:35.355Z,2.00
2022-12-11T09:28:02.686Z,1.00
2022-12-11T09:30:29.460Z,0.88
2022-12-11T09:32:56.357Z,1.30
2022-12-11T09:35:23.693Z,1.60
2022-12-11T09:37:50.455Z,1.07
2022-12-11T09:40:17.383Z,1.30
2022-12-11T09:43:01.588Z,1.50
2022-12-11T09:45:31.596Z,1.20
2022-12-11T09:48:00.566Z,1.63
2022-12-11T09:50:33.028Z,1.57
2022-12-11T09:53:15.238Z,1.63
2022-12-11T09:56:02.598Z,0.98
2022-12-11T09:58:44.283Z,0.93
2022-12-11T10:01:14.191Z,1.50
2022-12-11T10:03:56.927Z,0.77
2022-12-11T10:06:48.900Z,0.73
2022-12-11T10:09:40.703Z,0.55
2022-12-11T10:12:10.281Z,0.30
2022-12-11T10:14:55.262Z,1.20
2022-12-11T10:17:38.012Z,0.70
2022-12-11T10:20:39.656Z,0.63
2022-12-11T10:23:11.416Z,0.80
2022-12-11T10:25:45.093Z,0.80
2022-12-11T10:28:14.794Z,1.20
2022-12-11T10:31:07.673Z,1.10
2022-12-11T10:33:53.543Z,1.10
2022-12-11T10:36:28.397Z,2.00
2022-12-11T10:38:55.686Z,1.10
2022-12-11T10:41:33.548Z,1.40
2022-12-11T10:44:00.445Z,1.07
2022-12-11T10:46:29.894Z,1.00
2022-12-11T10:48:59.868Z,1.38
2022-12-11T10:51:37.524Z,1.08
2022-12-11T10:54:08.793Z,0.85
2022-12-11T10:56:38.242Z,1.00
2022-12-11T10:59:05.615Z,1.38
2022-12-11T11:01:33.202Z,0.93
2022-12-11T11:04:07.366Z,1.10
2022-12-11T11:06:41.005Z,1.10
2022-12-11T11:09:34.184Z,1.00
2022-12-11T11:12:08.352Z,1.27
2022-12-11T11:14:35.228Z,1.08
2022-12-11T11:17:02.323Z,1.17
2022-12-11T11:19:35.296Z,1.60
2022-12-11T11:22:14.575Z,1.40
2022-12-11T11:24:56.541Z,2.13
2022-12-11T11:27:35.738Z,2.05
2022-12-11T11:30:07.376Z,2.22
2022-12-11T11:32:38.705Z,3.00
2022-12-11T11:35:11.815Z,2.50
2022-12-11T11:37:41.175Z,1.75
2022-12-11T11:40:41.035Z,1.70
2022-12-11T11:43:22.980Z,1.88
2022-12-11T11:45:59.878Z,2.17
2022-12-11T11:48:50.855Z,2.20
2022-12-11T11:51:39.917Z,2.00
2022-12-11T11:54:19.644Z,2.03
2022-12-11T11:56:46.860Z,1.75
2022-12-11T11:59:28.217Z,1.33
2022-12-11T12:01:57.080Z,1.93
2022-12-11T12:04:28.052Z,1.45
2022-12-11T12:07:32.759Z,1.63
2022-12-11T12:10:26.941Z,1.67
2022-12-11T12:13:49.612Z,2.08
2022-12-11T12:16:54.821Z,1.50
2022-12-11T12:20:10.173Z,1.65
2022-12-11T12:22:41.512Z,1.55
2022-12-11T12:25:28.313Z,1.40
2022-12-11T12:28:33.267Z,4.13
2022-12-11T12:31:38.909Z,2.00
2022-12-11T12:34:15.144Z,1.55
